sensor_id;sensor_type;location;lat;lon;timestamp;pressure;altitude;pressure_sealevel;temperature;humidity
67013;BME280;53926;47.406;19.188;2022-08-03T00:01:48;100362.66;;;19.68;81.53
67013;BME280;53926;47.406;19.188;2022-08-03T00:04:15;100360.31;;;19.61;81.69
67013;BME280;53926;47.406;19.188;2022-08-03T00:06:41;100364.81;;;19.45;83.00
67013;BME280;53926;47.406;19.188;2022-08-03T00:09:08;100368.78;;;19.27;85.07
67013;BME280;53926;47.406;19.188;2022-08-03T00:11:37;100355.06;;;19.30;84.54
67013;BME280;53926;47.406;19.188;2022-08-03T00:14:04;100356.38;;;19.23;85.50
67013;BME280;53926;47.406;19.188;2022-08-03T00:16:31;100364.81;;;19.04;87.03
67013;BME280;53926;47.406;19.188;2022-08-03T00:18:58;100363.22;;;19.03;87.26
67013;BME280;53926;47.406;19.188;2022-08-03T00:21:26;100362.44;;;18.98;87.87
67013;BME280;53926;47.406;19.188;2022-08-03T00:23:54;100370.06;;;19.04;88.17
67013;BME280;53926;47.406;19.188;2022-08-03T00:26:21;100368.75;;;19.02;88.37
67013;BME280;53926;47.406;19.188;2022-08-03T00:28:48;100367.44;;;18.99;89.00
67013;BME280;53926;47.406;19.188;2022-08-03T00:31:15;100366.37;;;19.00;89.27
67013;BME280;53926;47.406;19.188;2022-08-03T00:33:59;100368.22;;;19.00;90.22
67013;BME280;53926;47.406;19.188;2022-08-03T00:36:29;100369.81;;;19.01;90.08
67013;BME280;53926;47.406;19.188;2022-08-03T00:38:56;100362.69;;;19.01;89.94
67013;BME280;53926;47.406;19.188;2022-08-03T00:41:23;100372.97;;;19.03;90.12
67013;BME280;53926;47.406;19.188;2022-08-03T00:43:49;100369.53;;;18.97;90.48
67013;BME280;53926;47.406;19.188;2022-08-03T00:46:16;100385.38;;;18.92;91.06
67013;BME280;53926;47.406;19.188;2022-08-03T00:48:50;100386.16;;;18.92;91.16
67013;BME280;53926;47.406;19.188;2022-08-03T00:51:19;100382.19;;;18.85;91.45
67013;BME280;53926;47.406;19.188;2022-08-03T00:53:46;100384.53;;;18.81;91.60
67013;BME280;53926;47.406;19.188;2022-08-03T00:56:14;100383.19;;;18.79;91.86
67013;BME280;53926;47.406;19.188;2022-08-03T00:58:42;100381.56;;;18.62;92.99
67013;BME280;53926;47.406;19.188;2022-08-03T01:01:09;100386.06;;;18.72;92.50
67013;BME280;53926;47.406;19.188;2022-08-03T01:03:38;100388.97;;;18.75;92.23
67013;BME280;53926;47.406;19.188;2022-08-03T01:06:17;100390.31;;;18.73;92.43
67013;BME280;53926;47.406;19.188;2022-08-03T01:08:58;100391.03;;;18.58;94.25
67013;BME280;53926;47.406;19.188;2022-08-03T01:11:37;100395.28;;;18.69;92.98
67013;BME280;53926;47.406;19.188;2022-08-03T01:17:17;100396.31;;;18.58;94.07
67013;BME280;53926;47.406;19.188;2022-08-03T01:25:23;100405.63;;;18.76;93.92
67013;BME280;53926;47.406;19.188;2022-08-03T01:30:38;100406.41;;;18.82;93.27
67013;BME280;53926;47.406;19.188;2022-08-03T01:33:12;100408.50;;;18.74;94.06
67013;BME280;53926;47.406;19.188;2022-08-03T01:35:44;100411.69;;;18.82;93.19
67013;BME280;53926;47.406;19.188;2022-08-03T01:38:26;100413.69;;;18.49;95.45
67013;BME280;53926;47.406;19.188;2022-08-03T01:40:55;100406.28;;;18.51;94.65
67013;BME280;53926;47.406;19.188;2022-08-03T01:43:27;100410.37;;;18.21;96.60
67013;BME280;53926;47.406;19.188;2022-08-03T01:46:19;100406.75;;;18.32;95.79
67013;BME280;53926;47.406;19.188;2022-08-03T01:48:47;100410.31;;;18.11;97.26
67013;BME280;53926;47.406;19.188;2022-08-03T01:51:17;100411.69;;;18.18;96.70
67013;BME280;53926;47.406;19.188;2022-08-03T01:53:47;100408.69;;;18.04;97.84
67013;BME280;53926;47.406;19.188;2022-08-03T01:56:28;100404.78;;;18.07;97.35
67013;BME280;53926;47.406;19.188;2022-08-03T01:58:56;100402.41;;;18.11;97.09
67013;BME280;53926;47.406;19.188;2022-08-03T02:01:26;100408.09;;;17.92;98.52
67013;BME280;53926;47.406;19.188;2022-08-03T02:04:16;100402.59;;;17.99;97.86
67013;BME280;53926;47.406;19.188;2022-08-03T02:06:45;100394.06;;;17.86;98.83
67013;BME280;53926;47.406;19.188;2022-08-03T02:09:29;100396.59;;;17.71;100.00
67013;BME280;53926;47.406;19.188;2022-08-03T02:11:57;100397.09;;;17.68;100.00
67013;BME280;53926;47.406;19.188;2022-08-03T02:14:26;100401.06;;;17.70;100.00
67013;BME280;53926;47.406;19.188;2022-08-03T02:16:54;100387.56;;;17.62;100.00
67013;BME280;53926;47.406;19.188;2022-08-03T02:19:23;100392.28;;;17.55;100.00
67013;BME280;53926;47.406;19.188;2022-08-03T02:21:52;100391.53;;;17.64;100.00
67013;BME280;53926;47.406;19.188;2022-08-03T02:24:27;100398.72;;;17.42;100.00
67013;BME280;53926;47.406;19.188;2022-08-03T02:26:55;100396.94;;;17.47;100.00
67013;BME280;53926;47.406;19.188;2022-08-03T02:29:25;100395.31;;;17.41;100.00
67013;BME280;53926;47.406;19.188;2022-08-03T02:32:09;100396.44;;;17.50;100.00
67013;BME280;53926;47.406;19.188;2022-08-03T02:34:39;100391.56;;;17.37;100.00
67013;BME280;53926;47.406;19.188;2022-08-03T02:37:09;100393.72;;;17.40;100.00
67013;BME280;53926;47.406;19.188;2022-08-03T02:39:38;100393.44;;;17.37;100.00
67013;BME280;53926;47.406;19.188;2022-08-03T02:42:08;100399.69;;;17.30;100.00
67013;BME280;53926;47.406;19.188;2022-08-03T02:44:39;100399.72;;;17.36;100.00
67013;BME280;53926;47.406;19.188;2022-08-03T02:47:10;100402.31;;;17.30;100.00
67013;BME280;53926;47.406;19.188;2022-08-03T02:49:37;100394.41;;;17.25;100.00
67013;BME280;53926;47.406;19.188;2022-08-03T02:52:19;100404.84;;;17.20;100.00
67013;BME280;53926;47.406;19.188;2022-08-03T02:54:48;100403.06;;;17.26;100.00
67013;BME280;53926;47.406;19.188;2022-08-03T02:57:17;100399.16;;;17.28;100.00
67013;BME280;53926;47.406;19.188;2022-08-03T02:59:46;100404.41;;;17.28;100.00
67013;BME280;53926;47.406;19.188;2022-08-03T03:02:14;100401.69;;;17.18;100.00
67013;BME280;53926;47.406;19.188;2022-08-03T03:04:44;100406.16;;;17.18;100.00
67013;BME280;53926;47.406;19.188;2022-08-03T03:07:32;100402.44;;;17.13;100.00
67013;BME280;53926;47.406;19.188;2022-08-03T03:10:19;100404.94;;;17.03;100.00
67013;BME280;53926;47.406;19.188;2022-08-03T03:12:47;100400.09;;;17.17;100.00
67013;BME280;53926;47.406;19.188;2022-08-03T03:15:16;100404.94;;;17.03;100.00
67013;BME280;53926;47.406;19.188;2022-08-03T03:17:44;100405.50;;;17.05;100.00
67013;BME280;53926;47.406;19.188;2022-08-03T03:20:11;100399.44;;;17.05;100.00
67013;BME280;53926;47.406;19.188;2022-08-03T03:22:40;100403.66;;;17.06;100.00
67013;BME280;53926;47.406;19.188;2022-08-03T03:25:10;100401.06;;;17.11;100.00
67013;BME280;53926;47.406;19.188;2022-08-03T03:27:38;100403.66;;;17.06;100.00
67013;BME280;53926;47.406;19.188;2022-08-03T03:30:05;100399.28;;;16.89;100.00
67013;BME280;53926;47.406;19.188;2022-08-03T03:32:32;100401.53;;;17.03;100.00
67013;BME280;53926;47.406;19.188;2022-08-03T03:35:00;100409.97;;;17.05;100.00
67013;BME280;53926;47.406;19.188;2022-08-03T03:37:27;100409.97;;;17.05;100.00
67013;BME280;53926;47.406;19.188;2022-08-03T03:39:53;100404.53;;;17.11;100.00
67013;BME280;53926;47.406;19.188;2022-08-03T03:42:20;100406.09;;;17.12;100.00
67013;BME280;53926;47.406;19.188;2022-08-03T03:44:47;100412.16;;;17.13;100.00
67013;BME280;53926;47.406;19.188;2022-08-03T03:47:14;100408.47;;;17.14;100.00
67013;BME280;53926;47.406;19.188;2022-08-03T03:49:42;100401.94;;;17.16;100.00
67013;BME280;53926;47.406;19.188;2022-08-03T03:52:09;100411.47;;;17.23;100.00
67013;BME280;53926;47.406;19.188;2022-08-03T03:54:43;100414.13;;;17.28;100.00
67013;BME280;53926;47.406;19.188;2022-08-03T03:57:10;100421.53;;;17.31;100.00
67013;BME280;53926;47.406;19.188;2022-08-03T03:59:41;100412.31;;;17.28;100.00
67013;BME280;53926;47.406;19.188;2022-08-03T04:02:08;100414.84;;;17.45;100.00
67013;BME280;53926;47.406;19.188;2022-08-03T04:04:36;100420.41;;;17.54;100.00
67013;BME280;53926;47.406;19.188;2022-08-03T04:07:23;100426.75;;;17.53;100.00
67013;BME280;53926;47.406;19.188;2022-08-03T04:10:12;100415.66;;;17.51;100.00
67013;BME280;53926;47.406;19.188;2022-08-03T04:12:59;100431.56;;;17.66;100.00
67013;BME280;53926;47.406;19.188;2022-08-03T04:15:28;100429.25;;;17.70;100.00
67013;BME280;53926;47.406;19.188;2022-08-03T04:17:57;100426.41;;;17.77;100.00
67013;BME280;53926;47.406;19.188;2022-08-03T04:20:29;100441.59;;;17.97;100.00
67013;BME280;53926;47.406;19.188;2022-08-03T04:22:58;100434.88;;;18.21;100.00
67013;BME280;53926;47.406;19.188;2022-08-03T04:25:29;100435.31;;;19.19;98.07
67013;BME280;53926;47.406;19.188;2022-08-03T04:27:59;100433.22;;;20.09;92.00
67013;BME280;53926;47.406;19.188;2022-08-03T04:30:47;100429.22;;;20.87;87.77
67013;BME280;53926;47.406;19.188;2022-08-03T04:33:17;100437.53;;;21.89;82.76
67013;BME280;53926;47.406;19.188;2022-08-03T04:35:46;100440.81;;;22.77;79.10
67013;BME280;53926;47.406;19.188;2022-08-03T04:38:30;100443.06;;;23.08;76.21
67013;BME280;53926;47.406;19.188;2022-08-03T04:40:58;100438.38;;;24.04;73.66
67013;BME280;53926;47.406;19.188;2022-08-03T04:43:26;100444.94;;;24.90;70.55
67013;BME280;53926;47.406;19.188;2022-08-03T04:45:54;100439.09;;;25.69;66.50
67013;BME280;53926;47.406;19.188;2022-08-03T04:48:22;100444.78;;;24.31;68.83
67013;BME280;53926;47.406;19.188;2022-08-03T04:50:49;100444.75;;;25.45;64.95
67013;BME280;53926;47.406;19.188;2022-08-03T04:53:16;100447.00;;;25.29;66.34
67013;BME280;53926;47.406;19.188;2022-08-03T04:55:45;100445.75;;;25.13;65.10
67013;BME280;53926;47.406;19.188;2022-08-03T04:58:12;100449.88;;;25.19;64.38
67013;BME280;53926;47.406;19.188;2022-08-03T05:00:40;100460.84;;;27.27;56.83
67013;BME280;53926;47.406;19.188;2022-08-03T05:03:08;100455.81;;;27.08;57.53
67013;BME280;53926;47.406;19.188;2022-08-03T05:05:53;100461.41;;;28.45;53.31
67013;BME280;53926;47.406;19.188;2022-08-03T05:08:37;100463.44;;;30.11;48.44
67013;BME280;53926;47.406;19.188;2022-08-03T05:11:14;100470.38;;;31.02;45.59
67013;BME280;53926;47.406;19.188;2022-08-03T05:13:41;100470.00;;;29.89;47.28
67013;BME280;53926;47.406;19.188;2022-08-03T05:16:07;100464.00;;;32.15;44.91
67013;BME280;53926;47.406;19.188;2022-08-03T05:18:34;100466.22;;;32.29;42.30
67013;BME280;53926;47.406;19.188;2022-08-03T05:21:01;100469.56;;;32.58;40.75
67013;BME280;53926;47.406;19.188;2022-08-03T05:23:28;100475.69;;;33.13;41.07
67013;BME280;53926;47.406;19.188;2022-08-03T05:25:54;100478.69;;;35.56;36.20
67013;BME280;53926;47.406;19.188;2022-08-03T05:28:21;100477.44;;;33.91;37.64
67013;BME280;53926;47.406;19.188;2022-08-03T05:30:48;100476.63;;;31.51;42.58
67013;BME280;53926;47.406;19.188;2022-08-03T05:33:15;100487.09;;;33.46;39.55
67013;BME280;53926;47.406;19.188;2022-08-03T05:35:42;100486.41;;;31.43;42.85
67013;BME280;53926;47.406;19.188;2022-08-03T05:38:29;100494.34;;;32.83;40.49
67013;BME280;53926;47.406;19.188;2022-08-03T05:41:01;100490.66;;;34.23;37.59
67013;BME280;53926;47.406;19.188;2022-08-03T05:43:48;100492.91;;;31.70;42.24
67013;BME280;53926;47.406;19.188;2022-08-03T05:46:15;100495.00;;;34.58;37.86
67013;BME280;53926;47.406;19.188;2022-08-03T05:48:42;100500.75;;;32.23;40.55
67013;BME280;53926;47.406;19.188;2022-08-03T05:51:09;100503.16;;;32.80;42.05
67013;BME280;53926;47.406;19.188;2022-08-03T05:53:38;100503.25;;;32.32;40.86
67013;BME280;53926;47.406;19.188;2022-08-03T05:56:05;100496.00;;;34.46;37.70
67013;BME280;53926;47.406;19.188;2022-08-03T05:58:41;100498.72;;;34.46;35.78
67013;BME280;53926;47.406;19.188;2022-08-03T06:01:07;100501.59;;;34.07;36.25
67013;BME280;53926;47.406;19.188;2022-08-03T06:03:34;100517.25;;;32.38;39.57
67013;BME280;53926;47.406;19.188;2022-08-03T06:06:01;100509.53;;;32.72;38.69
67013;BME280;53926;47.406;19.188;2022-08-03T06:08:27;100513.00;;;32.21;40.61
67013;BME280;53926;47.406;19.188;2022-08-03T06:10:54;100515.00;;;36.45;35.04
67013;BME280;53926;47.406;19.188;2022-08-03T06:13:22;100515.44;;;35.54;32.77
67013;BME280;53926;47.406;19.188;2022-08-03T06:15:49;100520.00;;;36.39;32.58
67013;BME280;53926;47.406;19.188;2022-08-03T06:18:15;100524.09;;;34.68;35.88
67013;BME280;53926;47.406;19.188;2022-08-03T06:20:42;100519.75;;;36.07;33.91
67013;BME280;53926;47.406;19.188;2022-08-03T06:23:09;100519.25;;;32.25;39.26
67013;BME280;53926;47.406;19.188;2022-08-03T06:25:43;100518.81;;;33.53;37.27
67013;BME280;53926;47.406;19.188;2022-08-03T06:28:09;100524.25;;;33.33;37.84
67013;BME280;53926;47.406;19.188;2022-08-03T06:30:57;100520.38;;;33.14;37.71
67013;BME280;53926;47.406;19.188;2022-08-03T06:33:24;100527.03;;;33.37;36.66
67013;BME280;53926;47.406;19.188;2022-08-03T06:36:11;100525.19;;;34.64;36.60
67013;BME280;53926;47.406;19.188;2022-08-03T06:38:38;100521.94;;;35.45;34.32
67013;BME280;53926;47.406;19.188;2022-08-03T06:41:05;100523.31;;;35.70;33.65
67013;BME280;53926;47.406;19.188;2022-08-03T06:43:31;100523.88;;;35.86;33.07
67013;BME280;53926;47.406;19.188;2022-08-03T06:46:03;100527.03;;;33.37;36.34
67013;BME280;53926;47.406;19.188;2022-08-03T06:48:31;100527.19;;;36.17;31.51
67013;BME280;53926;47.406;19.188;2022-08-03T06:50:57;100528.72;;;35.28;33.19
67013;BME280;53926;47.406;19.188;2022-08-03T06:53:24;100525.81;;;34.77;36.34
67013;BME280;53926;47.406;19.188;2022-08-03T06:55:51;100524.75;;;35.56;32.84
67013;BME280;53926;47.406;19.188;2022-08-03T06:58:21;100527.06;;;34.29;35.63
67013;BME280;53926;47.406;19.188;2022-08-03T07:00:47;100532.81;;;34.81;35.99
67013;BME280;53926;47.406;19.188;2022-08-03T07:03:15;100532.03;;;35.93;32.05
67013;BME280;53926;47.406;19.188;2022-08-03T07:05:42;100536.47;;;34.96;33.73
67013;BME280;53926;47.406;19.188;2022-08-03T07:08:09;100532.44;;;34.83;34.45
67013;BME280;53926;47.406;19.188;2022-08-03T07:10:35;100539.88;;;34.89;36.04
67013;BME280;53926;47.406;19.188;2022-08-03T07:13:03;100531.97;;;35.83;32.37
67013;BME280;53926;47.406;19.188;2022-08-03T07:15:30;100537.97;;;33.24;36.79
67013;BME280;53926;47.406;19.188;2022-08-03T07:18:16;100529.94;;;33.71;37.08
67013;BME280;53926;47.406;19.188;2022-08-03T07:20:54;100531.09;;;36.90;32.88
67013;BME280;53926;47.406;19.188;2022-08-03T07:23:21;100532.53;;;36.69;31.22
67013;BME280;53926;47.406;19.188;2022-08-03T07:25:47;100533.88;;;34.46;35.38
67013;BME280;53926;47.406;19.188;2022-08-03T07:28:14;100530.44;;;35.85;32.24
67013;BME280;53926;47.406;19.188;2022-08-03T07:30:40;100529.34;;;35.93;32.16
67013;BME280;53926;47.406;19.188;2022-08-03T07:33:07;100532.63;;;36.17;32.21
67013;BME280;53926;47.406;19.188;2022-08-03T07:35:34;100533.25;;;34.56;33.49
67013;BME280;53926;47.406;19.188;2022-08-03T07:38:00;100526.66;;;35.97;32.63
67013;BME280;53926;47.406;19.188;2022-08-03T07:40:27;100529.22;;;34.20;35.71
67013;BME280;53926;47.406;19.188;2022-08-03T07:42:57;100520.84;;;35.16;33.58
67013;BME280;53926;47.406;19.188;2022-08-03T07:45:24;100530.12;;;37.84;29.86
67013;BME280;53926;47.406;19.188;2022-08-03T07:47:52;100531.19;;;37.18;30.25
67013;BME280;53926;47.406;19.188;2022-08-03T07:50:20;100531.63;;;38.46;27.96
67013;BME280;53926;47.406;19.188;2022-08-03T07:52:48;100526.41;;;35.72;32.23
67013;BME280;53926;47.406;19.188;2022-08-03T07:55:18;100525.44;;;37.60;28.98
67013;BME280;53926;47.406;19.188;2022-08-03T07:57:45;100520.31;;;39.89;26.09
67013;BME280;53926;47.406;19.188;2022-08-03T08:00:15;100521.44;;;35.36;31.86
67013;BME280;53926;47.406;19.188;2022-08-03T08:02:43;100524.59;;;35.38;32.44
67013;BME280;53926;47.406;19.188;2022-08-03T08:05:11;100527.44;;;35.19;34.48
67013;BME280;53926;47.406;19.188;2022-08-03T08:07:38;100526.62;;;36.45;31.15
67013;BME280;53926;47.406;19.188;2022-08-03T08:10:06;100520.06;;;35.98;31.24
67013;BME280;53926;47.406;19.188;2022-08-03T08:12:33;100522.03;;;36.01;32.42
67013;BME280;53926;47.406;19.188;2022-08-03T08:15:00;100525.84;;;38.26;27.65
67013;BME280;53926;47.406;19.188;2022-08-03T08:17:27;100523.38;;;35.32;31.54
67013;BME280;53926;47.406;19.188;2022-08-03T08:19:54;100526.44;;;34.97;32.72
67013;BME280;53926;47.406;19.188;2022-08-03T08:22:21;100522.25;;;36.30;31.96
67013;BME280;53926;47.406;19.188;2022-08-03T08:24:55;100529.75;;;32.82;37.61
67013;BME280;53926;47.406;19.188;2022-08-03T08:27:22;100521.81;;;35.72;32.25
67013;BME280;53926;47.406;19.188;2022-08-03T08:29:49;100521.09;;;35.79;33.45
67013;BME280;53926;47.406;19.188;2022-08-03T08:32:21;100519.25;;;36.46;31.00
67013;BME280;53926;47.406;19.188;2022-08-03T08:34:48;100524.75;;;33.00;36.74
67013;BME280;53926;47.406;19.188;2022-08-03T08:37:15;100517.97;;;35.02;35.13
67013;BME280;53926;47.406;19.188;2022-08-03T08:39:41;100521.34;;;36.11;30.93
67013;BME280;53926;47.406;19.188;2022-08-03T08:42:09;100517.28;;;37.24;30.93
67013;BME280;53926;47.406;19.188;2022-08-03T08:44:37;100516.47;;;34.20;34.42
67013;BME280;53926;47.406;19.188;2022-08-03T08:47:03;100518.00;;;35.05;36.55
67013;BME280;53926;47.406;19.188;2022-08-03T08:49:35;100518.50;;;34.54;34.08
67013;BME280;53926;47.406;19.188;2022-08-03T08:52:04;100516.34;;;33.67;37.41
67013;BME280;53926;47.406;19.188;2022-08-03T08:55:04;100520.47;;;32.98;35.45
67013;BME280;53926;47.406;19.188;2022-08-03T08:57:41;100509.38;;;32.65;37.33
67013;BME280;53926;47.406;19.188;2022-08-03T09:00:10;100511.41;;;32.52;38.13
67013;BME280;53926;47.406;19.188;2022-08-03T09:02:44;100512.91;;;33.47;36.27
67013;BME280;53926;47.406;19.188;2022-08-03T09:05:13;100513.06;;;33.54;36.31
67013;BME280;53926;47.406;19.188;2022-08-03T09:07:41;100506.69;;;34.96;34.42
67013;BME280;53926;47.406;19.188;2022-08-03T09:10:10;100501.37;;;34.73;33.37
67013;BME280;53926;47.406;19.188;2022-08-03T09:12:43;100501.97;;;34.86;34.16
67013;BME280;53926;47.406;19.188;2022-08-03T09:15:23;100497.47;;;34.40;34.35
67013;BME280;53926;47.406;19.188;2022-08-03T09:17:52;100503.88;;;32.96;35.95
67013;BME280;53926;47.406;19.188;2022-08-03T09:20:21;100499.78;;;34.15;34.63
67013;BME280;53926;47.406;19.188;2022-08-03T09:22:52;100502.94;;;32.89;36.27
67013;BME280;53926;47.406;19.188;2022-08-03T09:25:35;100504.72;;;32.81;36.27
67013;BME280;53926;47.406;19.188;2022-08-03T09:30:38;100492.25;;;33.78;35.45
67013;BME280;53926;47.406;19.188;2022-08-03T09:33:07;100499.81;;;33.06;34.90
67013;BME280;53926;47.406;19.188;2022-08-03T09:36:00;100494.69;;;33.40;34.16
67013;BME280;53926;47.406;19.188;2022-08-03T09:38:27;100497.44;;;33.44;34.73
67013;BME280;53926;47.406;19.188;2022-08-03T09:40:55;100488.66;;;33.93;32.88
67013;BME280;53926;47.406;19.188;2022-08-03T09:43:26;100482.75;;;34.11;32.32
67013;BME280;53926;47.406;19.188;2022-08-03T09:46:03;100486.97;;;34.65;31.12
67013;BME280;53926;47.406;19.188;2022-08-03T09:48:31;100486.81;;;33.74;33.78
67013;BME280;53926;47.406;19.188;2022-08-03T09:51:04;100491.28;;;33.66;32.73
67013;BME280;53926;47.406;19.188;2022-08-03T09:53:51;100484.37;;;33.23;36.12
67013;BME280;53926;47.406;19.188;2022-08-03T09:56:40;100473.72;;;33.76;33.16
67013;BME280;53926;47.406;19.188;2022-08-03T09:59:08;100474.41;;;33.96;33.72
67013;BME280;53926;47.406;19.188;2022-08-03T10:01:35;100467.53;;;34.56;32.92
67013;BME280;53926;47.406;19.188;2022-08-03T10:04:03;100470.19;;;33.10;35.42
67013;BME280;53926;47.406;19.188;2022-08-03T10:06:31;100460.91;;;34.50;31.60
67013;BME280;53926;47.406;19.188;2022-08-03T10:09:13;100466.41;;;34.87;31.89
67013;BME280;53926;47.406;19.188;2022-08-03T10:11:42;100462.25;;;34.10;33.00
67013;BME280;53926;47.406;19.188;2022-08-03T10:14:10;100452.81;;;32.13;35.40
67013;BME280;53926;47.406;19.188;2022-08-03T10:16:45;100461.13;;;32.24;36.06
67013;BME280;53926;47.406;19.188;2022-08-03T10:19:13;100456.12;;;32.61;37.56
67013;BME280;53926;47.406;19.188;2022-08-03T10:21:46;100458.25;;;31.85;37.74
67013;BME280;53926;47.406;19.188;2022-08-03T10:24:16;100456.41;;;31.13;38.56
67013;BME280;53926;47.406;19.188;2022-08-03T10:26:43;100453.75;;;31.89;38.38
67013;BME280;53926;47.406;19.188;2022-08-03T10:29:23;100455.50;;;31.81;39.78
67013;BME280;53926;47.406;19.188;2022-08-03T10:31:56;100452.28;;;31.91;38.29
67013;BME280;53926;47.406;19.188;2022-08-03T10:34:26;100451.47;;;30.74;40.57
67013;BME280;53926;47.406;19.188;2022-08-03T10:36:56;100442.38;;;32.47;41.58
67013;BME280;53926;47.406;19.188;2022-08-03T10:39:27;100443.56;;;32.50;36.00
67013;BME280;53926;47.406;19.188;2022-08-03T10:41:55;100438.31;;;33.15;34.43
67013;BME280;53926;47.406;19.188;2022-08-03T10:44:32;100428.59;;;33.77;34.89
67013;BME280;53926;47.406;19.188;2022-08-03T10:47:03;100430.75;;;34.21;37.00
67013;BME280;53926;47.406;19.188;2022-08-03T10:49:31;100427.47;;;34.65;31.69
67013;BME280;53926;47.406;19.188;2022-08-03T10:52:01;100424.81;;;35.40;29.56
67013;BME280;53926;47.406;19.188;2022-08-03T10:54:40;100420.66;;;34.41;30.14
67013;BME280;53926;47.406;19.188;2022-08-03T10:57:47;100421.72;;;35.38;29.21
67013;BME280;53926;47.406;19.188;2022-08-03T11:00:22;100419.94;;;34.21;30.79
67013;BME280;53926;47.406;19.188;2022-08-03T11:03:09;100420.50;;;34.30;30.83
67013;BME280;53926;47.406;19.188;2022-08-03T11:05:44;100414.84;;;33.62;30.83
67013;BME280;53926;47.406;19.188;2022-08-03T11:10:45;100411.66;;;32.91;33.60
67013;BME280;53926;47.406;19.188;2022-08-03T11:13:20;100396.66;;;31.51;36.21
67013;BME280;53926;47.406;19.188;2022-08-03T11:15:50;100397.88;;;30.94;39.36
67013;BME280;53926;47.406;19.188;2022-08-03T11:18:18;100398.06;;;31.29;39.72
67013;BME280;53926;47.406;19.188;2022-08-03T11:20:53;100400.56;;;32.02;35.93
67013;BME280;53926;47.406;19.188;2022-08-03T11:23:41;100392.53;;;33.19;35.11
67013;BME280;53926;47.406;19.188;2022-08-03T11:26:28;100393.94;;;33.59;34.84
67013;BME280;53926;47.406;19.188;2022-08-03T11:29:30;100397.53;;;32.19;34.66
67013;BME280;53926;47.406;19.188;2022-08-03T11:31:57;100395.50;;;32.71;36.67
67013;BME280;53926;47.406;19.188;2022-08-03T11:34:24;100392.22;;;32.07;36.80
67013;BME280;53926;47.406;19.188;2022-08-03T11:37:22;100392.13;;;31.24;36.11
67013;BME280;53926;47.406;19.188;2022-08-03T11:39:54;100380.38;;;31.60;37.96
67013;BME280;53926;47.406;19.188;2022-08-03T11:44:49;100377.16;;;30.25;39.59
67013;BME280;53926;47.406;19.188;2022-08-03T11:47:17;100384.81;;;31.08;38.12
67013;BME280;53926;47.406;19.188;2022-08-03T11:49:46;100380.53;;;31.83;36.97
67013;BME280;53926;47.406;19.188;2022-08-03T11:52:13;100372.09;;;31.85;35.51
67013;BME280;53926;47.406;19.188;2022-08-03T11:54:41;100375.13;;;32.35;35.58
67013;BME280;53926;47.406;19.188;2022-08-03T11:57:08;100367.81;;;32.74;33.49
67013;BME280;53926;47.406;19.188;2022-08-03T11:59:36;100366.78;;;33.98;32.72
67013;BME280;53926;47.406;19.188;2022-08-03T12:02:11;100369.41;;;33.95;31.31
67013;BME280;53926;47.406;19.188;2022-08-03T12:04:52;100365.09;;;33.37;33.05
67013;BME280;53926;47.406;19.188;2022-08-03T12:07:19;100372.53;;;33.70;31.29
67013;BME280;53926;47.406;19.188;2022-08-03T12:10:13;100367.81;;;34.47;32.24
67013;BME280;53926;47.406;19.188;2022-08-03T12:12:40;100361.44;;;33.75;30.86
67013;BME280;53926;47.406;19.188;2022-08-03T12:15:12;100365.87;;;33.64;32.71
67013;BME280;53926;47.406;19.188;2022-08-03T12:17:40;100371.44;;;32.43;33.33
67013;BME280;53926;47.406;19.188;2022-08-03T12:20:08;100363.78;;;32.25;32.98
67013;BME280;53926;47.406;19.188;2022-08-03T12:22:39;100367.09;;;32.19;33.54
67013;BME280;53926;47.406;19.188;2022-08-03T12:25:07;100372.34;;;31.96;35.50
67013;BME280;53926;47.406;19.188;2022-08-03T12:27:34;100356.72;;;31.37;35.05
67013;BME280;53926;47.406;19.188;2022-08-03T12:30:02;100358.22;;;31.51;35.54
67013;BME280;53926;47.406;19.188;2022-08-03T12:32:29;100354.69;;;31.63;34.18
67013;BME280;53926;47.406;19.188;2022-08-03T12:34:57;100358.63;;;31.85;34.77
67013;BME280;53926;47.406;19.188;2022-08-03T12:37:27;100351.06;;;32.85;37.19
67013;BME280;53926;47.406;19.188;2022-08-03T12:39:56;100343.00;;;33.08;32.63
67013;BME280;53926;47.406;19.188;2022-08-03T12:42:35;100345.66;;;33.27;32.21
67013;BME280;53926;47.406;19.188;2022-08-03T12:45:22;100347.22;;;33.78;29.79
67013;BME280;53926;47.406;19.188;2022-08-03T12:47:54;100343.13;;;33.92;31.48
67013;BME280;53926;47.406;19.188;2022-08-03T12:50:32;100338.25;;;34.01;30.98
67013;BME280;53926;47.406;19.188;2022-08-03T12:53:04;100330.78;;;34.21;29.24
67013;BME280;53926;47.406;19.188;2022-08-03T12:55:37;100336.28;;;34.28;30.57
67013;BME280;53926;47.406;19.188;2022-08-03T12:58:33;100337.25;;;34.81;30.09
67013;BME280;53926;47.406;19.188;2022-08-03T13:01:04;100337.25;;;34.81;29.12
67013;BME280;53926;47.406;19.188;2022-08-03T13:03:43;100320.25;;;35.25;28.29
67013;BME280;53926;47.406;19.188;2022-08-03T13:06:23;100331.78;;;34.73;27.91
67013;BME280;53926;47.406;19.188;2022-08-03T13:09:04;100320.84;;;34.63;28.21
67013;BME280;53926;47.406;19.188;2022-08-03T13:11:31;100319.28;;;35.48;28.03
67013;BME280;53926;47.406;19.188;2022-08-03T13:14:18;100319.72;;;36.38;28.00
67013;BME280;53926;47.406;19.188;2022-08-03T13:16:46;100320.72;;;36.01;28.42
67013;BME280;53926;47.406;19.188;2022-08-03T13:19:13;100309.00;;;34.37;27.86